createdAt,value
2022-10-11T00:00:04.035Z,2.17
2022-10-11T00:02:31.218Z,1.90
2022-10-11T00:04:57.688Z,2.25
2022-10-11T00:07:24.182Z,1.90
2022-10-11T00:09:50.672Z,1.83
2022-10-11T00:12:17.155Z,1.95
2022-10-11T00:14:43.637Z,1.90
2022-10-11T00:17:10.165Z,1.85
2022-10-11T00:19:36.677Z,1.65
2022-10-11T00:22:03.158Z,2.20
2022-10-11T00:24:29.684Z,1.88
2022-10-11T00:26:56.193Z,2.00
2022-10-11T00:29:22.962Z,2.30
2022-10-11T00:31:49.438Z,1.98
2022-10-11T00:34:18.061Z,1.73
2022-10-11T00:36:45.812Z,1.70
2022-10-11T00:39:14.410Z,1.85
2022-10-11T00:41:41.286Z,1.98
2022-10-11T00:44:15.828Z,1.50
2022-10-11T00:46:55.953Z,1.77
2022-10-11T00:49:37.560Z,1.60
2022-10-11T00:52:29.030Z,1.80
2022-10-11T00:54:57.357Z,1.90
2022-10-11T00:57:28.032Z,2.17
2022-10-11T00:59:56.221Z,2.35
2022-10-11T01:02:24.095Z,2.10
2022-10-11T01:05:05.699Z,2.17
2022-10-11T01:07:39.078Z,2.00
2022-10-11T01:10:05.752Z,1.95
2022-10-11T01:12:32.862Z,1.60
2022-10-11T01:15:17.850Z,1.90
2022-10-11T01:18:05.862Z,2.25
2022-10-11T01:20:50.601Z,2.40
2022-10-11T01:23:42.045Z,1.92
2022-10-11T01:26:17.470Z,1.90
2022-10-11T01:28:59.237Z,2.07
2022-10-11T01:31:38.539Z,1.98
2022-10-11T01:34:15.075Z,1.95
2022-10-11T01:36:56.785Z,2.05
2022-10-11T01:39:31.540Z,2.00
2022-10-11T01:42:02.463Z,2.03
2022-10-11T01:44:30.305Z,2.05
2022-10-11T01:46:56.934Z,2.08
2022-10-11T01:49:23.588Z,1.95
2022-10-11T01:51:54.605Z,2.25
2022-10-11T01:55:07.478Z,2.05
2022-10-11T01:57:46.488Z,2.03
2022-10-11T02:00:20.534Z,1.65
2022-10-11T02:03:02.476Z,1.63
2022-10-11T02:05:58.089Z,2.22
2022-10-11T02:08:53.945Z,2.35
2022-10-11T02:11:30.293Z,1.95
2022-10-11T02:16:37.770Z,1.85
2022-10-11T02:19:07.006Z,2.25
2022-10-11T02:21:36.199Z,2.25
2022-10-11T02:24:11.354Z,2.30
2022-10-11T02:26:40.740Z,1.83
2022-10-11T02:29:12.059Z,1.77
2022-10-11T02:31:40.765Z,2.10
2022-10-11T02:34:27.073Z,2.00
2022-10-11T02:37:19.320Z,1.80
2022-10-11T02:39:53.901Z,1.67
2022-10-11T02:42:33.814Z,2.03
2022-10-11T02:45:07.752Z,2.00
2022-10-11T02:47:34.420Z,2.30
2022-10-11T02:50:01.555Z,2.33
2022-10-11T02:52:28.214Z,2.03
2022-10-11T02:54:54.732Z,2.22
2022-10-11T02:57:21.274Z,1.77
2022-10-11T02:59:47.824Z,2.10
2022-10-11T03:02:14.706Z,2.22
2022-10-11T03:04:41.350Z,2.50
2022-10-11T03:07:07.856Z,1.90
2022-10-11T03:09:34.460Z,1.95
2022-10-11T03:12:00.959Z,2.38
2022-10-11T03:14:27.520Z,2.00
2022-10-11T03:16:53.951Z,2.20
2022-10-11T03:19:20.734Z,2.17
2022-10-11T03:21:47.303Z,2.08
2022-10-11T03:24:13.773Z,1.90
2022-10-11T03:26:40.244Z,2.00
2022-10-11T03:29:06.726Z,5.07
2022-10-11T03:31:33.244Z,8.88
2022-10-11T03:33:59.790Z,4.00
2022-10-11T03:36:26.576Z,2.80
2022-10-11T03:38:53.199Z,1.80
2022-10-11T03:41:19.905Z,2.10
2022-10-11T03:43:46.721Z,2.22
2022-10-11T03:46:13.465Z,1.95
2022-10-11T03:48:40.256Z,2.17
2022-10-11T03:51:06.962Z,2.38
2022-10-11T03:53:33.623Z,2.28
2022-10-11T03:56:02.436Z,2.10
2022-10-11T03:58:32.596Z,2.03
2022-10-11T04:00:59.817Z,2.50
2022-10-11T04:03:26.855Z,1.92
2022-10-11T04:05:53.563Z,2.20
2022-10-11T04:08:20.193Z,2.40
2022-10-11T04:10:48.672Z,2.20
2022-10-11T04:13:17.596Z,2.17
2022-10-11T04:15:44.395Z,2.42
2022-10-11T04:18:12.033Z,2.13
2022-10-11T04:20:39.005Z,2.38
2022-10-11T04:23:05.700Z,2.33
2022-10-11T04:25:32.505Z,2.13
2022-10-11T04:27:59.243Z,2.03
2022-10-11T04:30:25.995Z,2.45
2022-10-11T04:32:52.658Z,2.30
2022-10-11T04:35:19.247Z,2.15
2022-10-11T04:37:45.977Z,1.98
2022-10-11T04:40:12.981Z,2.38
2022-10-11T04:42:39.628Z,1.80
2022-10-11T04:45:06.875Z,2.30
2022-10-11T04:47:33.792Z,2.13
2022-10-11T04:50:00.535Z,2.40
2022-10-11T04:52:29.927Z,2.05
2022-10-11T04:54:56.486Z,2.13
2022-10-11T04:57:23.273Z,2.60
2022-10-11T04:59:50.416Z,1.95
2022-10-11T05:02:17.484Z,2.20
2022-10-11T05:04:44.199Z,1.90
2022-10-11T05:07:10.782Z,2.35
2022-10-11T05:09:37.447Z,1.92
2022-10-11T05:12:04.472Z,2.28
2022-10-11T05:14:31.109Z,2.28
2022-10-11T05:16:57.781Z,2.00
2022-10-11T05:19:24.485Z,2.30
2022-10-11T05:21:51.170Z,2.42
2022-10-11T05:24:17.810Z,2.15
2022-10-11T05:26:44.431Z,2.08
2022-10-11T05:29:11.403Z,2.40
2022-10-11T05:31:38.282Z,2.10
2022-10-11T05:34:05.021Z,2.60
2022-10-11T05:36:31.730Z,2.10
2022-10-11T05:38:58.388Z,2.42
2022-10-11T05:41:25.133Z,2.30
2022-10-11T05:43:51.863Z,2.42
2022-10-11T05:46:18.643Z,2.30
2022-10-11T05:48:45.268Z,2.05
2022-10-11T05:51:12.499Z,2.28
2022-10-11T05:53:39.632Z,2.40
2022-10-11T05:56:19.252Z,2.58
2022-10-11T05:58:45.982Z,2.28
2022-10-11T06:01:25.277Z,2.30
2022-10-11T06:03:53.039Z,2.15
2022-10-11T06:06:20.734Z,2.75
2022-10-11T06:08:47.837Z,2.53
2022-10-11T06:11:21.034Z,2.25
2022-10-11T06:13:48.905Z,2.45
2022-10-11T06:16:16.406Z,2.25
2022-10-11T06:18:43.329Z,2.60
2022-10-11T06:21:10.043Z,3.10
2022-10-11T06:23:36.866Z,2.72
2022-10-11T06:26:07.555Z,2.40
2022-10-11T06:28:36.159Z,2.47
2022-10-11T06:31:05.453Z,2.88
2022-10-11T06:33:32.705Z,2.50
2022-10-11T06:36:01.248Z,2.47
2022-10-11T06:38:28.410Z,2.97
2022-10-11T06:40:55.136Z,2.72
2022-10-11T06:43:22.904Z,3.40
2022-10-11T06:45:49.491Z,2.65
2022-10-11T06:48:16.302Z,2.78
2022-10-11T06:50:59.081Z,2.85
2022-10-11T06:53:27.862Z,2.72
2022-10-11T06:55:54.576Z,2.83
2022-10-11T06:58:21.244Z,3.00
2022-10-11T07:00:48.105Z,2.90
2022-10-11T07:03:14.789Z,2.88
2022-10-11T07:05:41.608Z,3.17
2022-10-11T07:08:08.257Z,2.90
2022-10-11T07:10:36.636Z,2.83
2022-10-11T07:13:03.232Z,2.90
2022-10-11T07:15:30.047Z,3.13
2022-10-11T07:17:56.744Z,2.78
2022-10-11T07:20:24.862Z,2.92
2022-10-11T07:22:51.554Z,2.65
2022-10-11T07:25:18.417Z,2.95
2022-10-11T07:27:45.109Z,2.80
2022-10-11T07:30:12.124Z,2.95
2022-10-11T07:32:38.725Z,2.65
2022-10-11T07:35:05.797Z,2.70
2022-10-11T07:37:34.386Z,2.80
2022-10-11T07:40:01.103Z,2.70
2022-10-11T07:42:27.669Z,3.25
2022-10-11T07:44:54.323Z,2.72
2022-10-11T07:47:20.953Z,3.08
2022-10-11T07:49:47.692Z,2.83
2022-10-11T07:52:14.419Z,2.58
2022-10-11T07:54:41.139Z,3.10
2022-10-11T07:57:07.828Z,2.85
2022-10-11T07:59:35.052Z,2.60
2022-10-11T08:02:01.878Z,2.50
2022-10-11T08:04:28.673Z,2.63
2022-10-11T08:06:55.390Z,2.55
2022-10-11T08:09:22.037Z,2.80
2022-10-11T08:11:48.707Z,2.67
2022-10-11T08:14:15.423Z,2.88
2022-10-11T08:16:42.320Z,2.83
2022-10-11T08:19:10.532Z,2.50
2022-10-11T08:21:37.409Z,2.65
2022-10-11T08:24:05.209Z,2.42
2022-10-11T08:26:32.934Z,2.20
2022-10-11T08:29:03.297Z,2.40
2022-10-11T08:31:30.083Z,2.47
2022-10-11T08:33:57.249Z,2.00
2022-10-11T08:36:24.084Z,2.60
2022-10-11T08:38:50.824Z,1.90
2022-10-11T08:41:36.235Z,1.90
2022-10-11T08:44:14.811Z,2.17
2022-10-11T08:46:47.325Z,2.08
2022-10-11T08:49:15.620Z,2.20
2022-10-11T08:51:47.468Z,1.80
2022-10-11T08:54:45.479Z,2.10
2022-10-11T08:57:16.615Z,2.05
2022-10-11T08:59:49.673Z,2.00
2022-10-11T09:03:02.885Z,2.10
2022-10-11T09:05:27.788Z,2.10
2022-10-11T09:08:29.462Z,1.67
2022-10-11T09:11:22.156Z,2.33
2022-10-11T09:14:06.735Z,2.30
2022-10-11T09:16:47.738Z,2.30
2022-10-11T09:19:47.562Z,1.80
2022-10-11T09:22:35.824Z,1.95
2022-10-11T09:25:34.885Z,2.03
2022-10-11T09:28:33.970Z,1.90
2022-10-11T09:31:00.812Z,1.63
2022-10-11T09:33:36.909Z,2.13
2022-10-11T10:21:12.768Z,2.22
2022-10-11T10:23:39.769Z,1.75
2022-10-11T10:26:16.973Z,2.63
2022-10-11T10:29:10.781Z,1.83
2022-10-11T10:32:09.119Z,2.42
2022-10-11T10:34:35.286Z,2.30
2022-10-11T10:37:34.265Z,1.92
2022-10-11T10:40:13.667Z,2.20
2022-10-11T10:42:40.400Z,2.17
2022-10-11T10:45:17.433Z,2.30
2022-10-11T10:47:59.410Z,1.83
2022-10-11T10:50:34.076Z,1.80
2022-10-11T10:53:08.783Z,2.00
2022-10-11T10:55:42.716Z,2.30
2022-10-11T10:58:29.212Z,1.67
2022-10-11T11:03:50.842Z,2.03
2022-10-11T11:06:34.132Z,2.08
2022-10-11T11:09:21.447Z,2.30
2022-10-11T11:11:59.426Z,2.03
2022-10-11T11:14:41.476Z,1.80
2022-10-11T11:17:15.633Z,2.33
2022-10-11T11:20:03.706Z,1.60
2022-10-11T11:22:33.036Z,1.80
2022-10-11T11:25:30.795Z,2.10
2022-10-11T11:28:13.871Z,2.00
2022-10-11T11:30:47.451Z,2.13
2022-10-11T11:33:36.888Z,1.95
2022-10-11T11:36:11.307Z,1.98
2022-10-11T11:38:44.805Z,1.95
2022-10-11T11:41:26.247Z,2.22
2022-10-11T11:44:03.751Z,1.73
2022-10-11T11:46:38.247Z,1.63
2022-10-11T11:49:13.425Z,2.10
2022-10-11T11:51:45.263Z,1.67
2022-10-11T11:54:42.371Z,2.15
2022-10-11T12:00:12.767Z,1.95
2022-10-11T12:03:01.476Z,2.05
2022-10-11T12:05:32.091Z,1.77
2022-10-11T12:08:02.151Z,1.65
2022-10-11T12:10:31.098Z,1.90
2022-10-11T12:13:03.611Z,1.75
2022-10-11T12:15:30.354Z,1.98
2022-10-11T12:17:57.172Z,1.70
2022-10-11T12:20:28.638Z,1.80
2022-10-11T12:23:30.153Z,2.42
2022-10-11T12:26:27.692Z,1.92
2022-10-11T12:29:06.061Z,2.10
2022-10-11T12:31:36.723Z,2.25
2022-10-11T12:34:09.250Z,1.90
2022-10-11T12:36:49.492Z,1.80
2022-10-11T12:39:40.809Z,1.50
2022-10-11T12:42:19.136Z,1.90
2022-10-11T12:45:14.546Z,1.60
2022-10-11T12:47:54.854Z,1.58
2022-10-11T12:50:28.099Z,2.58
2022-10-11T12:53:22.378Z,1.80
2022-10-11T12:55:51.931Z,1.63
2022-10-11T12:58:24.594Z,1.50
2022-10-11T13:00:51.176Z,1.70
2022-10-11T13:03:32.783Z,1.70
2022-10-11T13:06:09.888Z,1.95
2022-10-11T13:08:39.857Z,1.92
2022-10-11T13:11:10.204Z,1.70
2022-10-11T13:13:44.445Z,1.92
2022-10-11T13:16:19.170Z,2.05
2022-10-11T13:18:49.698Z,1.70
2022-10-11T13:21:28.860Z,1.63
2022-10-11T13:23:59.321Z,1.95
2022-10-11T13:26:30.134Z,1.90
2022-10-11T13:28:57.295Z,1.70
2022-10-11T13:31:25.180Z,1.73
2022-10-11T13:33:56.989Z,1.67
2022-10-11T13:36:26.929Z,1.42
2022-10-11T13:38:59.101Z,1.70
2022-10-11T13:41:27.809Z,1.65
2022-10-11T13:43:56.512Z,1.98
2022-10-11T13:46:26.221Z,1.73
2022-10-11T13:49:05.616Z,1.80
2022-10-11T13:51:38.579Z,1.73
2022-10-11T13:54:13.635Z,1.80
2022-10-11T13:56:51.266Z,1.70
2022-10-11T13:59:21.880Z,1.88
2022-10-11T14:01:49.507Z,1.92
2022-10-11T14:04:17.356Z,2.03
2022-10-11T14:06:56.516Z,2.40
2022-10-11T14:09:30.969Z,1.95
2022-10-11T14:12:28.634Z,2.10
2022-10-11T14:14:55.450Z,1.92
2022-10-11T14:17:34.131Z,1.83
2022-10-11T14:20:13.496Z,2.03
2022-10-11T14:22:40.056Z,2.00
2022-10-11T14:25:06.620Z,2.17
2022-10-11T14:27:33.338Z,1.90
2022-10-11T14:30:24.128Z,2.35
2022-10-11T14:32:49.153Z,1.50
2022-10-11T14:35:21.771Z,1.95
2022-10-11T14:37:48.393Z,2.28
2022-10-11T14:40:33.220Z,1.73
2022-10-11T14:42:59.925Z,1.98
2022-10-11T14:45:26.487Z,2.25
2022-10-11T14:47:53.575Z,1.60
2022-10-11T14:50:36.824Z,1.80
2022-10-11T14:53:05.766Z,2.00
2022-10-11T14:55:32.417Z,1.90
2022-10-11T14:57:59.098Z,1.95
2022-10-11T15:00:28.510Z,1.90
2022-10-11T15:02:56.073Z,2.08
2022-10-11T15:05:25.610Z,2.00
2022-10-11T15:07:54.454Z,1.90
2022-10-11T15:10:23.552Z,1.98
2022-10-11T15:12:51.968Z,1.92
2022-10-11T15:15:22.556Z,2.15
2022-10-11T15:17:54.397Z,2.22
2022-10-11T15:20:34.344Z,2.25
2022-10-11T15:23:01.865Z,2.13
2022-10-11T15:25:29.570Z,2.13
2022-10-11T15:27:57.279Z,2.03
2022-10-11T15:30:26.849Z,2.05
2022-10-11T15:32:54.114Z,2.33
2022-10-11T15:35:23.175Z,2.33
2022-10-11T15:37:54.959Z,1.98
2022-10-11T15:40:24.778Z,2.10
2022-10-11T15:42:52.892Z,2.30
2022-10-11T15:45:20.790Z,2.08
2022-10-11T15:47:48.212Z,2.00
2022-10-11T15:50:37.450Z,2.40
2022-10-11T15:53:14.812Z,2.15
2022-10-11T15:55:44.119Z,2.10
2022-10-11T15:58:14.635Z,2.20
2022-10-11T16:00:42.324Z,2.33
2022-10-11T16:03:11.985Z,2.28
2022-10-11T16:05:39.320Z,2.55
2022-10-11T16:08:06.243Z,2.03
2022-10-11T16:10:33.066Z,2.00
2022-10-11T16:13:00.038Z,2.00
2022-10-11T16:15:26.654Z,2.28
2022-10-11T16:17:53.216Z,2.53
2022-10-11T16:20:22.413Z,2.38
2022-10-11T16:22:49.593Z,2.53
2022-10-11T16:25:16.790Z,2.67
2022-10-11T16:27:44.208Z,2.03
2022-10-11T16:30:13.802Z,2.10
2022-10-11T16:32:41.136Z,2.10
2022-10-11T16:35:08.649Z,2.17
2022-10-11T16:37:36.286Z,2.33
2022-10-11T16:40:03.386Z,2.10
2022-10-11T16:42:30.013Z,1.95
2022-10-11T16:44:56.580Z,2.22
2022-10-11T16:47:23.279Z,1.70
2022-10-11T16:49:49.899Z,2.30
2022-10-11T16:52:16.511Z,2.70
2022-10-11T16:54:45.108Z,2.25
2022-10-11T16:57:14.280Z,2.38
2022-10-11T16:59:41.372Z,2.08
2022-10-11T17:02:15.690Z,2.45
2022-10-11T17:04:42.652Z,2.50
2022-10-11T17:07:12.375Z,2.08
2022-10-11T17:09:43.966Z,3.33
2022-10-11T17:12:13.181Z,3.10
2022-10-11T17:14:41.121Z,2.28
2022-10-11T17:17:09.716Z,2.08
2022-10-11T17:19:42.613Z,2.03
2022-10-11T17:22:13.106Z,2.10
2022-10-11T17:24:39.911Z,2.35
2022-10-11T17:27:07.377Z,2.33
2022-10-11T17:29:34.578Z,2.67
2022-10-11T17:32:01.329Z,2.47
2022-10-11T17:34:28.225Z,2.50
2022-10-11T17:36:54.864Z,2.20
2022-10-11T17:39:23.548Z,2.45
2022-10-11T17:41:50.697Z,2.65
2022-10-11T17:44:18.523Z,2.40
2022-10-11T17:46:46.401Z,2.10
2022-10-11T17:49:13.219Z,2.50
2022-10-11T17:51:40.492Z,3.00
2022-10-11T17:54:12.267Z,2.53
2022-10-11T17:56:42.565Z,3.05
2022-10-11T17:59:15.792Z,3.33
2022-10-11T18:01:43.255Z,2.92
2022-10-11T18:04:16.730Z,3.10
2022-10-11T18:06:45.888Z,4.35
2022-10-11T18:09:14.163Z,6.47
2022-10-11T18:11:40.808Z,7.28
2022-10-11T18:14:07.412Z,7.68
2022-10-11T18:16:35.297Z,7.70
2022-10-11T18:19:04.286Z,6.80
2022-10-11T18:21:34.280Z,6.65
2022-10-11T18:24:07.805Z,5.65
2022-10-11T18:26:34.585Z,5.55
2022-10-11T18:29:01.330Z,3.97
2022-10-11T18:31:30.235Z,4.43
2022-10-11T18:33:56.914Z,3.80
2022-10-11T18:36:26.938Z,3.58
2022-10-11T18:38:56.379Z,3.67
2022-10-11T18:41:25.624Z,2.70
2022-10-11T18:43:55.246Z,2.80
2022-10-11T18:46:23.170Z,2.63
2022-10-11T18:48:52.128Z,2.25
2022-10-11T18:51:22.210Z,2.70
2022-10-11T18:53:49.518Z,2.83
2022-10-11T18:56:18.055Z,2.80
2022-10-11T18:58:44.675Z,2.47
2022-10-11T19:01:17.410Z,2.67
2022-10-11T19:03:46.217Z,3.20
2022-10-11T19:06:18.721Z,2.80
2022-10-11T19:08:47.309Z,3.30
2022-10-11T19:11:21.584Z,3.10
2022-10-11T19:14:11.140Z,9.93
2022-10-11T19:16:40.916Z,4.07
2022-10-11T19:19:09.350Z,3.22
2022-10-11T19:21:36.247Z,4.10
2022-10-11T19:24:03.431Z,3.67
2022-10-11T19:26:33.698Z,4.07
2022-10-11T19:29:03.603Z,4.20
2022-10-11T19:31:31.558Z,4.10
2022-10-11T19:33:59.428Z,3.95
2022-10-11T19:36:26.687Z,3.47
2022-10-11T19:38:56.745Z,3.35
2022-10-11T19:41:25.124Z,3.28
2022-10-11T19:43:52.680Z,3.78
2022-10-11T19:46:38.392Z,3.38
2022-10-11T19:49:09.033Z,3.38
2022-10-11T19:51:37.316Z,3.10
2022-10-11T19:54:06.618Z,3.40
2022-10-11T19:56:34.769Z,3.70
2022-10-11T19:59:02.469Z,4.15
2022-10-11T20:01:30.694Z,4.25
2022-10-11T20:04:00.353Z,4.35
2022-10-11T20:06:28.262Z,4.32
2022-10-11T20:09:23.792Z,3.85
2022-10-11T20:11:43.086Z,3.70
2022-10-11T20:14:09.621Z,4.05
2022-10-11T20:16:36.281Z,3.90
2022-10-11T20:19:04.368Z,4.22
2022-10-11T20:21:31.067Z,3.75
2022-10-11T20:24:00.388Z,4.20
2022-10-11T20:26:28.424Z,3.45
2022-10-11T20:28:56.493Z,3.45
2022-10-11T20:31:31.891Z,3.60
2022-10-11T20:34:04.839Z,3.60
2022-10-11T20:36:32.781Z,2.92
2022-10-11T20:39:00.208Z,3.28
2022-10-11T20:41:32.419Z,3.10
2022-10-11T20:44:01.146Z,3.20
2022-10-11T20:46:31.344Z,3.05
2022-10-11T20:49:01.751Z,3.05
2022-10-11T20:51:31.081Z,3.25
2022-10-11T20:53:58.765Z,3.20
2022-10-11T20:56:25.455Z,2.83
2022-10-11T20:58:53.027Z,3.28
2022-10-11T21:01:22.414Z,2.88
2022-10-11T21:03:49.091Z,2.95
2022-10-11T21:06:15.679Z,2.60
2022-10-11T21:08:42.389Z,2.72
2022-10-11T21:11:09.645Z,2.70
2022-10-11T21:13:36.996Z,2.92
2022-10-11T21:16:10.860Z,3.17
2022-10-11T21:18:37.912Z,3.20
2022-10-11T21:21:09.820Z,3.25
2022-10-11T21:23:36.627Z,3.88
2022-10-11T21:26:06.656Z,3.42
2022-10-11T21:28:33.820Z,2.90
2022-10-11T21:31:05.019Z,2.90
2022-10-11T21:33:31.719Z,2.70
2022-10-11T21:35:58.287Z,3.40
2022-10-11T21:38:26.190Z,3.50
2022-10-11T21:40:52.759Z,3.00
2022-10-11T21:43:19.324Z,2.83
2022-10-11T21:45:46.132Z,3.22
2022-10-11T21:48:12.856Z,2.90
2022-10-11T21:50:39.326Z,3.13
2022-10-11T21:53:05.824Z,3.40
2022-10-11T21:55:32.310Z,3.22
2022-10-11T21:57:58.850Z,2.78
2022-10-11T22:00:25.349Z,3.45
2022-10-11T22:02:52.781Z,2.85
2022-10-11T22:05:19.256Z,3.50
2022-10-11T22:07:45.770Z,3.20
2022-10-11T22:10:12.263Z,2.90
2022-10-11T22:12:38.807Z,2.63
2022-10-11T22:15:05.909Z,2.85
2022-10-11T22:17:32.369Z,3.03
2022-10-11T22:19:58.875Z,3.60
2022-10-11T22:22:25.402Z,3.88
2022-10-11T22:24:51.872Z,3.08
2022-10-11T22:27:18.409Z,3.58
2022-10-11T22:29:44.939Z,3.00
2022-10-11T22:32:11.453Z,2.70
2022-10-11T22:34:37.941Z,2.92
2022-10-11T22:37:04.512Z,3.05
2022-10-11T22:39:30.999Z,3.20
2022-10-11T22:41:57.452Z,3.10
2022-10-11T22:44:23.917Z,3.10
2022-10-11T22:46:50.416Z,3.85
2022-10-11T22:49:16.886Z,3.47
2022-10-11T22:51:44.338Z,3.55
2022-10-11T22:54:11.292Z,4.03
2022-10-11T22:56:37.782Z,3.92
2022-10-11T22:59:04.493Z,3.55
2022-10-11T23:01:31.005Z,3.58
2022-10-11T23:03:57.774Z,3.50
2022-10-11T23:06:24.355Z,3.08
2022-10-11T23:08:50.811Z,3.20
2022-10-11T23:11:17.300Z,3.70
2022-10-11T23:13:43.788Z,3.20
2022-10-11T23:16:12.188Z,3.45
2022-10-11T23:18:38.961Z,3.35
2022-10-11T23:21:06.390Z,3.17
2022-10-11T23:23:33.145Z,3.70
2022-10-11T23:26:08.753Z,3.60
2022-10-11T23:28:36.198Z,3.38
2022-10-11T23:31:14.183Z,3.90
2022-10-11T23:33:41.096Z,3.80
2022-10-11T23:36:23.089Z,3.30
2022-10-11T23:38:51.864Z,3.45
2022-10-11T23:41:18.383Z,3.90
2022-10-11T23:43:45.072Z,3.03
2022-10-11T23:46:11.528Z,3.50
2022-10-11T23:48:37.995Z,4.03
2022-10-11T23:51:04.643Z,3.30
2022-10-11T23:53:31.166Z,2.97
2022-10-11T23:55:57.646Z,2.95
2022-10-11T23:58:24.203Z,3.47
